Wingate, Indiana
Current Conditions -  °F | °C
As of 10:54 AM on Thursday 23 Oct 2014 (Local Time) from KLAF Reporting Station
Clear Clear  
Wind Chill:   Ceiling: Unl
Heat Index:   Visibility: 8mi
Dew Point:   Wind: 6mph
Humidity: 83%   Direction: NA
Pressure: 30.25"   Gusts: NA
Location:  40.17°N, 87.07°W
Report Text: KLAF 231454Z VRB05KT 8SM CLR 09/06 A3025 RMK AO2 SLP247 T00890061 50002
Loading
Personal Weather Stations






























Interactive Weather Map
Tropical Storm Tracking
New forecast layout! Learn more

10-Day Weather Forecast

Advertisements
Track Severe Weather on mobile